Estación Meteorológica Peña el Pijo (Robertgarden) [ 02/03/23 04:52:15 CET ]

Fecha Hora Presion(HPa) Temp (°C) Humedad % Rocio (°C) Viento ( m/s) Direccion Lluvia 1Hora(mm) Lluvia 24H(mm) LLuvia Total(mm)
2010-Mar-24 01:01:18 1006.200 7.2 89 5.5         104.63
2010-Mar-24 02:03:26 1005.600 7.3 89 5.6         104.63
2010-Mar-24 03:01:12 1005.300 7.2 90 5.7         104.63
2010-Mar-24 04:01:15 1004.900 6.6 90 5.1         104.63
2010-Mar-24 05:01:12 1004.500 4.9 90 3.4         104.63
2010-Mar-24 06:01:14 1004.500 4.4 91 3.0         104.63
2010-Mar-24 07:01:15 1004.300 5.1 92 3.9         104.63
2010-Mar-24 08:01:13 1004.700 5.6 93 4.5         104.63
2010-Mar-24 09:01:12 1005.000 5.9 93 4.8         104.63
2010-Mar-24 10:01:12 1005.100 8.3 90 6.8         104.63
2010-Mar-24 11:01:12 1005.000 11.3 80 8.0         104.63
2010-Mar-24 12:01:12 1004.000 14.9 65 8.3         104.63
2010-Mar-24 13:01:18 1002.900 16.8 59 8.8 1.7 NNW     104.63
2010-Mar-24 14:01:16 1002.600 15.9 61 8.4         104.63
2010-Mar-24 15:01:12 1003.000 13.4 74 8.8         104.63
2010-Mar-24 16:01:12 1002.200 14.4 71 9.2 3.1 NNW     104.63
2010-Mar-24 17:01:13 1001.500 14.9 70 9.5         104.63
2010-Mar-24 18:01:11 1001.600 13.4 77 9.4 1.7 N     104.63
2010-Mar-24 19:01:17 1002.100 11.3 85 8.8         104.63
2010-Mar-24 20:01:16 1002.200 9.9 89 8.1         104.63
2010-Mar-24 21:01:16 1003.000 9.3 92 8.1         104.63
2010-Mar-24 22:01:13 1004.000 8.9 91 7.5         104.63
2010-Mar-24 23:01:16 1004.100 8.5 92 7.3         104.63

Temperatura Máxima:16°    Temperatura Mínima:
Presión Máxima:1006.200 Hpa    Presión Mínima:1001.500 Hpa


Volver